createdAt,value
2023-02-21T00:03:33.358Z,5.90
2023-02-21T00:08:44.049Z,6.87
2023-02-21T00:13:55.702Z,6.93
2023-02-21T00:19:08.146Z,8.67
2023-02-21T00:24:19.035Z,8.00
2023-02-21T00:29:29.679Z,8.47
2023-02-21T00:34:42.159Z,8.17
2023-02-21T00:39:52.834Z,4.87
2023-02-21T00:45:03.651Z,6.80
2023-02-21T00:50:15.667Z,6.23
2023-02-21T00:55:26.471Z,6.30
2023-02-21T01:00:40.878Z,5.83
2023-02-21T01:05:52.880Z,7.70
2023-02-21T01:11:03.446Z,5.87
2023-02-21T01:16:14.050Z,5.63
2023-02-21T01:21:31.531Z,7.37
2023-02-21T01:26:42.133Z,6.60
2023-02-21T01:31:53.626Z,8.50
2023-02-21T01:37:05.833Z,6.00
2023-02-21T01:42:16.689Z,7.90
2023-02-21T01:47:29.847Z,6.37
2023-02-21T01:52:43.112Z,8.20
2023-02-21T01:57:56.150Z,6.33
2023-02-21T02:03:15.249Z,5.90
2023-02-21T02:08:27.276Z,7.07
2023-02-21T02:13:45.468Z,6.27
2023-02-21T02:18:59.312Z,9.67
2023-02-21T02:24:55.008Z,6.23
2023-02-21T02:30:38.565Z,6.60
2023-02-21T02:35:39.602Z,5.57
2023-02-21T02:40:44.939Z,6.37
2023-02-21T02:45:46.387Z,9.67
2023-02-21T02:50:42.782Z,17.63
2023-02-21T02:55:44.322Z,40.60
2023-02-21T03:00:41.421Z,23.60
2023-02-21T03:06:07.036Z,17.20
2023-02-21T03:11:13.639Z,17.60
2023-02-21T03:16:18.301Z,7.13
2023-02-21T03:21:18.709Z,8.20
2023-02-21T03:26:15.732Z,8.67
2023-02-21T03:31:12.608Z,7.20
2023-02-21T03:36:09.945Z,7.93
2023-02-21T03:41:04.788Z,27.73
2023-02-21T03:45:58.101Z,23.67
2023-02-21T03:50:51.558Z,7.93
2023-02-21T03:55:45.131Z,9.40
2023-02-21T04:00:39.893Z,7.50
2023-02-21T04:05:33.265Z,11.13
2023-02-21T04:10:26.557Z,12.43
2023-02-21T04:15:19.838Z,61.73
2023-02-21T04:20:16.458Z,12.37
2023-02-21T04:25:10.783Z,15.73
2023-02-21T04:30:04.524Z,11.80
2023-02-21T04:34:57.880Z,10.47
2023-02-21T04:39:52.616Z,16.23
2023-02-21T04:44:58.237Z,10.27
2023-02-21T04:49:53.016Z,8.07
2023-02-21T04:54:47.705Z,8.03
2023-02-21T04:59:42.629Z,8.40
2023-02-21T05:04:36.386Z,12.93
2023-02-21T05:09:29.800Z,16.73
2023-02-21T05:14:23.250Z,28.57
2023-02-21T05:19:27.362Z,21.17
2023-02-21T05:24:20.884Z,20.00
2023-02-21T05:29:14.181Z,27.33
2023-02-21T05:34:07.496Z,25.30
2023-02-21T05:39:02.287Z,19.73
2023-02-21T05:43:55.746Z,26.30
2023-02-21T05:48:49.225Z,47.80
2023-02-21T05:53:42.887Z,34.70
2023-02-21T05:58:37.969Z,45.20
2023-02-21T06:03:31.312Z,54.17
2023-02-21T06:08:24.640Z,189.10
2023-02-21T06:13:18.095Z,32.00
2023-02-21T06:18:14.879Z,29.03
2023-02-21T06:23:08.428Z,54.30
2023-02-21T06:28:04.445Z,157.47
2023-02-21T06:32:57.741Z,217.83
2023-02-21T06:37:52.393Z,53.00
2023-02-21T06:42:45.645Z,197.57
2023-02-21T06:47:38.938Z,266.03
2023-02-21T06:52:32.964Z,100.03
2023-02-21T06:57:27.621Z,134.17
2023-02-21T07:02:21.843Z,204.60
2023-02-21T07:07:15.747Z,22.00
2023-02-21T07:12:09.772Z,16.27
2023-02-21T07:17:04.585Z,29.47
2023-02-21T07:21:57.921Z,22.77
2023-02-21T07:26:51.416Z,14.27
2023-02-21T07:31:44.942Z,13.93
2023-02-21T07:36:40.500Z,29.30
2023-02-21T07:41:33.892Z,15.93
2023-02-21T07:46:29.647Z,40.10
2023-02-21T07:51:23.051Z,13.10
2023-02-21T07:56:17.872Z,11.93
2023-02-21T08:01:11.212Z,10.73
2023-02-21T08:06:05.263Z,11.00
2023-02-21T08:10:58.568Z,13.00
2023-02-21T08:15:53.447Z,14.13
2023-02-21T08:20:46.841Z,12.50
2023-02-21T08:25:41.331Z,15.03
2023-02-21T08:30:34.660Z,13.57
2023-02-21T08:35:30.522Z,13.73
2023-02-21T08:40:25.560Z,13.60
2023-02-21T08:45:21.498Z,13.53
2023-02-21T08:50:15.259Z,16.37
2023-02-21T08:55:12.655Z,15.83
2023-02-21T09:00:10.702Z,15.77
2023-02-21T09:05:04.065Z,16.23
2023-02-21T09:09:59.016Z,16.67
2023-02-21T09:15:23.871Z,16.13
2023-02-21T09:20:34.148Z,18.37
2023-02-21T09:25:42.786Z,16.30
2023-02-21T09:30:48.517Z,21.73
2023-02-21T09:35:42.153Z,19.33
2023-02-21T09:40:43.859Z,22.80
2023-02-21T09:45:40.010Z,22.67
2023-02-21T09:50:42.417Z,22.70
2023-02-21T09:55:39.945Z,20.20
2023-02-21T10:00:37.323Z,20.80
2023-02-21T10:05:45.517Z,21.83
2023-02-21T10:10:46.430Z,22.37
2023-02-21T10:15:48.408Z,18.17
2023-02-21T10:20:48.788Z,21.77
2023-02-21T10:25:47.117Z,23.50
2023-02-21T10:30:41.274Z,22.57
2023-02-21T10:35:35.508Z,21.60
2023-02-21T10:40:36.994Z,21.57
2023-02-21T10:45:40.668Z,20.63
2023-02-21T10:50:52.517Z,18.90
2023-02-21T10:55:47.767Z,19.30
2023-02-21T11:00:47.990Z,21.33
2023-02-21T11:05:41.778Z,18.73
2023-02-21T11:10:41.692Z,19.87
2023-02-21T11:15:36.576Z,17.80
2023-02-21T11:20:30.136Z,18.77
2023-02-21T11:25:28.329Z,17.17
2023-02-21T11:30:23.857Z,20.13
2023-02-21T11:35:28.779Z,20.67
2023-02-21T11:40:42.876Z,23.93
2023-02-21T11:45:41.995Z,23.43
2023-02-21T11:50:49.301Z,21.33
2023-02-21T11:55:50.726Z,20.10
2023-02-21T12:01:02.088Z,26.00
2023-02-21T12:06:05.957Z,25.10
2023-02-21T12:11:21.127Z,19.83
2023-02-21T12:16:32.866Z,19.43
2023-02-21T12:22:13.604Z,18.87
2023-02-21T12:27:18.887Z,18.57
2023-02-21T12:32:45.733Z,21.07
2023-02-21T12:37:56.398Z,18.50
2023-02-21T12:43:19.318Z,19.60
2023-02-21T12:48:27.252Z,18.33
2023-02-21T12:53:38.490Z,18.77
2023-02-21T13:05:27.152Z,20.87
2023-02-21T13:23:40.283Z,18.70
2023-02-21T13:28:36.578Z,16.97
2023-02-21T13:33:41.282Z,17.43
2023-02-21T13:38:34.817Z,14.33
2023-02-21T13:43:33.178Z,12.93
2023-02-21T13:48:31.380Z,14.10
2023-02-21T13:53:33.204Z,13.57
2023-02-21T13:58:37.725Z,12.73
2023-02-21T14:03:35.421Z,12.60
2023-02-21T14:08:33.832Z,11.37
2023-02-21T14:13:36.875Z,12.47
2023-02-21T14:18:43.158Z,11.93
2023-02-21T14:23:48.581Z,10.60
2023-02-21T14:29:11.023Z,11.53
2023-02-21T14:34:06.691Z,11.40
2023-02-21T14:39:00.803Z,11.13
2023-02-21T14:44:20.857Z,12.10
2023-02-21T14:50:05.412Z,13.03
2023-02-21T14:55:53.934Z,12.23
2023-02-21T15:01:01.306Z,9.77
2023-02-21T15:06:04.591Z,9.83
2023-02-21T15:11:03.077Z,12.00
2023-02-21T15:16:01.150Z,10.57
2023-02-21T15:21:14.808Z,11.00
2023-02-21T15:26:22.016Z,11.63
2023-02-21T15:31:18.331Z,9.10
2023-02-21T15:36:22.933Z,7.57
2023-02-21T15:41:27.878Z,7.93
2023-02-21T15:46:28.633Z,10.50
2023-02-21T15:51:24.366Z,10.60
2023-02-21T15:56:25.416Z,9.87
2023-02-21T16:01:22.574Z,10.40
2023-02-21T16:06:28.504Z,10.97
2023-02-21T16:11:22.041Z,12.40
2023-02-21T16:16:15.663Z,11.23
2023-02-21T16:21:26.200Z,12.90
2023-02-21T16:26:28.268Z,9.83
2023-02-21T16:31:29.589Z,13.07
2023-02-21T16:36:28.525Z,11.43
2023-02-21T16:41:22.379Z,11.37
2023-02-21T16:46:17.191Z,10.67
2023-02-21T16:51:15.830Z,10.37
2023-02-21T16:56:10.841Z,14.40
2023-02-21T17:01:08.262Z,12.67
2023-02-21T17:06:02.888Z,14.83
2023-02-21T17:10:57.105Z,15.83
2023-02-21T17:15:54.370Z,16.60
2023-02-21T17:20:48.030Z,18.60
2023-02-21T17:25:41.365Z,19.07
2023-02-21T17:30:34.833Z,14.40
2023-02-21T17:35:29.745Z,13.73
2023-02-21T17:40:24.943Z,12.53
2023-02-21T17:45:20.854Z,14.23
2023-02-21T17:50:15.027Z,10.77
2023-02-21T17:55:14.212Z,14.00
2023-02-21T18:00:21.117Z,12.20
2023-02-21T18:05:14.368Z,11.37
2023-02-21T18:10:09.621Z,11.30
2023-02-21T18:15:03.457Z,10.50
2023-02-21T18:19:56.804Z,14.93
2023-02-21T18:24:50.115Z,12.73
2023-02-21T18:29:44.829Z,7.43
2023-02-21T18:34:38.232Z,7.90
2023-02-21T18:39:32.952Z,6.83
2023-02-21T18:44:26.305Z,8.67
2023-02-21T18:49:21.730Z,8.23
2023-02-21T18:54:15.250Z,8.70
2023-02-21T18:59:08.576Z,7.17
2023-02-21T19:04:03.606Z,7.00
2023-02-21T19:08:58.499Z,8.47
2023-02-21T19:13:51.872Z,6.77
2023-02-21T19:18:45.272Z,6.83
2023-02-21T19:23:38.665Z,7.20
2023-02-21T19:28:33.366Z,8.03
2023-02-21T19:33:26.832Z,7.00
2023-02-21T19:38:20.356Z,10.40
2023-02-21T19:43:13.611Z,10.03
2023-02-21T19:48:08.384Z,8.80
2023-02-21T19:53:01.778Z,8.97
2023-02-21T19:57:55.206Z,13.43
2023-02-21T20:02:49.277Z,10.87
2023-02-21T20:07:45.568Z,12.10
2023-02-21T20:12:38.948Z,11.30
2023-02-21T20:17:32.289Z,13.03
2023-02-21T20:22:31.404Z,10.90
2023-02-21T20:27:26.464Z,12.20
2023-02-21T20:32:19.956Z,11.50
2023-02-21T20:37:14.537Z,13.57
2023-02-21T20:42:08.376Z,11.17
2023-02-21T20:47:03.325Z,12.60
2023-02-21T20:51:57.075Z,14.07
2023-02-21T20:56:52.630Z,13.13
2023-02-21T21:01:48.328Z,13.30
2023-02-21T21:06:43.648Z,18.20
2023-02-21T21:11:37.183Z,17.17
2023-02-21T21:16:30.610Z,18.97
2023-02-21T21:21:29.135Z,15.27
2023-02-21T21:26:25.602Z,14.90
2023-02-21T21:31:20.199Z,14.87
2023-02-21T21:36:14.208Z,13.47
2023-02-21T21:41:13.841Z,14.50
2023-02-21T21:46:09.784Z,11.80
2023-02-21T21:51:03.736Z,11.10
2023-02-21T21:56:04.602Z,10.17
2023-02-21T22:01:01.639Z,11.53
2023-02-21T22:06:00.733Z,9.77
2023-02-21T22:10:54.870Z,9.80
2023-02-21T22:15:48.981Z,12.57
2023-02-21T22:20:43.230Z,15.03
2023-02-21T22:25:38.067Z,13.03
2023-02-21T22:30:31.543Z,12.87
2023-02-21T22:35:25.299Z,11.40
2023-02-21T22:40:24.235Z,12.90
2023-02-21T22:45:19.509Z,11.03
2023-02-21T22:50:15.285Z,11.57
2023-02-21T22:55:09.466Z,13.40
2023-02-21T23:00:19.155Z,10.90
2023-02-21T23:05:17.817Z,15.03
2023-02-21T23:10:16.558Z,11.50
2023-02-21T23:15:12.174Z,12.60
2023-02-21T23:20:15.774Z,10.70
2023-02-21T23:25:19.791Z,13.27
2023-02-21T23:30:13.910Z,12.60
2023-02-21T23:35:08.162Z,15.30
2023-02-21T23:40:01.934Z,12.80
2023-02-21T23:44:59.396Z,13.77
2023-02-21T23:49:52.680Z,15.77
2023-02-21T23:54:47.131Z,12.73
2023-02-21T23:59:40.423Z,15.60
